sensor_id;sensor_type;location;lat;lon;timestamp;P1;durP1;ratioP1;P2;durP2;ratioP2
9076;SDS011;4574;51.072;17.174;2023-05-10T00:00:05;6.13;;;4.90;;
9076;SDS011;4574;51.072;17.174;2023-05-10T00:02:37;7.20;;;3.80;;
9076;SDS011;4574;51.072;17.174;2023-05-10T00:05:08;6.00;;;3.73;;
9076;SDS011;4574;51.072;17.174;2023-05-10T00:07:37;8.00;;;4.03;;
9076;SDS011;4574;51.072;17.174;2023-05-10T00:10:06;9.13;;;4.17;;
9076;SDS011;4574;51.072;17.174;2023-05-10T00:12:35;7.53;;;4.07;;
9076;SDS011;4574;51.072;17.174;2023-05-10T00:15:04;7.30;;;3.90;;
9076;SDS011;4574;51.072;17.174;2023-05-10T00:17:33;6.17;;;3.87;;
9076;SDS011;4574;51.072;17.174;2023-05-10T00:20:03;4.97;;;3.77;;
9076;SDS011;4574;51.072;17.174;2023-05-10T00:22:34;7.07;;;4.07;;
9076;SDS011;4574;51.072;17.174;2023-05-10T00:25:03;9.00;;;4.10;;
9076;SDS011;4574;51.072;17.174;2023-05-10T00:27:32;5.77;;;4.00;;
9076;SDS011;4574;51.072;17.174;2023-05-10T00:30:01;5.97;;;3.70;;
9076;SDS011;4574;51.072;17.174;2023-05-10T00:32:30;5.80;;;3.70;;
9076;SDS011;4574;51.072;17.174;2023-05-10T00:34:59;6.37;;;4.17;;
9076;SDS011;4574;51.072;17.174;2023-05-10T00:37:28;6.43;;;4.17;;
9076;SDS011;4574;51.072;17.174;2023-05-10T00:39:58;5.23;;;3.73;;
9076;SDS011;4574;51.072;17.174;2023-05-10T00:42:28;6.00;;;3.97;;
9076;SDS011;4574;51.072;17.174;2023-05-10T00:44:57;5.17;;;4.23;;
9076;SDS011;4574;51.072;17.174;2023-05-10T00:47:26;5.77;;;3.93;;
9076;SDS011;4574;51.072;17.174;2023-05-10T00:49:55;6.20;;;3.80;;
9076;SDS011;4574;51.072;17.174;2023-05-10T00:52:24;6.67;;;4.23;;
9076;SDS011;4574;51.072;17.174;2023-05-10T00:54:53;5.83;;;4.30;;
9076;SDS011;4574;51.072;17.174;2023-05-10T00:57:24;7.00;;;4.50;;
9076;SDS011;4574;51.072;17.174;2023-05-10T00:59:53;8.33;;;4.17;;
9076;SDS011;4574;51.072;17.174;2023-05-10T01:02:22;7.70;;;4.43;;
9076;SDS011;4574;51.072;17.174;2023-05-10T01:04:51;9.07;;;4.23;;
9076;SDS011;4574;51.072;17.174;2023-05-10T01:07:21;7.00;;;3.93;;
9076;SDS011;4574;51.072;17.174;2023-05-10T01:09:50;9.50;;;4.57;;
9076;SDS011;4574;51.072;17.174;2023-05-10T01:12:18;10.13;;;4.70;;
9076;SDS011;4574;51.072;17.174;2023-05-10T01:14:49;6.17;;;3.77;;
9076;SDS011;4574;51.072;17.174;2023-05-10T01:17:18;7.77;;;4.20;;
9076;SDS011;4574;51.072;17.174;2023-05-10T01:19:48;6.67;;;4.17;;
9076;SDS011;4574;51.072;17.174;2023-05-10T01:28:47;6.03;;;4.17;;
9076;SDS011;4574;51.072;17.174;2023-05-10T01:34:46;6.80;;;4.63;;
9076;SDS011;4574;51.072;17.174;2023-05-10T01:37:21;4.97;;;4.07;;
9076;SDS011;4574;51.072;17.174;2023-05-10T01:39:58;7.80;;;4.13;;
9076;SDS011;4574;51.072;17.174;2023-05-10T01:42:33;6.63;;;4.37;;
9076;SDS011;4574;51.072;17.174;2023-05-10T01:45:11;6.33;;;4.27;;
9076;SDS011;4574;51.072;17.174;2023-05-10T01:47:49;7.07;;;4.37;;
9076;SDS011;4574;51.072;17.174;2023-05-10T01:50:23;11.23;;;5.10;;
9076;SDS011;4574;51.072;17.174;2023-05-10T01:52:56;7.97;;;4.03;;
9076;SDS011;4574;51.072;17.174;2023-05-10T01:55:28;9.47;;;4.57;;
9076;SDS011;4574;51.072;17.174;2023-05-10T01:58:01;8.07;;;4.20;;
9076;SDS011;4574;51.072;17.174;2023-05-10T02:00:32;10.57;;;4.53;;
9076;SDS011;4574;51.072;17.174;2023-05-10T02:03:05;8.50;;;4.40;;
9076;SDS011;4574;51.072;17.174;2023-05-10T02:05:36;6.87;;;4.40;;
9076;SDS011;4574;51.072;17.174;2023-05-10T02:08:06;7.23;;;3.90;;
9076;SDS011;4574;51.072;17.174;2023-05-10T02:10:37;9.20;;;4.50;;
9076;SDS011;4574;51.072;17.174;2023-05-10T02:13:07;6.37;;;4.33;;
9076;SDS011;4574;51.072;17.174;2023-05-10T02:15:38;9.23;;;4.20;;
9076;SDS011;4574;51.072;17.174;2023-05-10T02:18:10;8.90;;;4.10;;
9076;SDS011;4574;51.072;17.174;2023-05-10T02:20:40;8.37;;;4.43;;
9076;SDS011;4574;51.072;17.174;2023-05-10T02:23:10;7.27;;;4.40;;
9076;SDS011;4574;51.072;17.174;2023-05-10T02:25:40;8.50;;;4.57;;
9076;SDS011;4574;51.072;17.174;2023-05-10T02:28:11;8.90;;;4.50;;
9076;SDS011;4574;51.072;17.174;2023-05-10T02:30:42;9.53;;;4.70;;
9076;SDS011;4574;51.072;17.174;2023-05-10T02:33:13;9.20;;;4.20;;
9076;SDS011;4574;51.072;17.174;2023-05-10T02:35:42;7.00;;;4.53;;
9076;SDS011;4574;51.072;17.174;2023-05-10T02:38:11;6.13;;;4.70;;
9076;SDS011;4574;51.072;17.174;2023-05-10T02:40:42;6.97;;;4.27;;
9076;SDS011;4574;51.072;17.174;2023-05-10T02:43:12;8.10;;;4.70;;
9076;SDS011;4574;51.072;17.174;2023-05-10T02:45:43;8.70;;;4.70;;
9076;SDS011;4574;51.072;17.174;2023-05-10T02:48:17;5.73;;;4.50;;
9076;SDS011;4574;51.072;17.174;2023-05-10T02:50:46;5.43;;;4.63;;
9076;SDS011;4574;51.072;17.174;2023-05-10T02:53:20;6.63;;;4.10;;
9076;SDS011;4574;51.072;17.174;2023-05-10T02:55:51;6.43;;;4.03;;
9076;SDS011;4574;51.072;17.174;2023-05-10T02:58:23;6.53;;;4.17;;
9076;SDS011;4574;51.072;17.174;2023-05-10T03:00:53;11.30;;;4.80;;
9076;SDS011;4574;51.072;17.174;2023-05-10T03:03:23;6.30;;;4.50;;
9076;SDS011;4574;51.072;17.174;2023-05-10T03:05:52;6.93;;;5.00;;
9076;SDS011;4574;51.072;17.174;2023-05-10T03:08:22;6.30;;;4.73;;
9076;SDS011;4574;51.072;17.174;2023-05-10T03:10:55;6.10;;;4.50;;
9076;SDS011;4574;51.072;17.174;2023-05-10T03:13:48;5.90;;;4.00;;
9076;SDS011;4574;51.072;17.174;2023-05-10T03:16:32;8.90;;;4.40;;
9076;SDS011;4574;51.072;17.174;2023-05-10T03:19:14;6.87;;;4.87;;
9076;SDS011;4574;51.072;17.174;2023-05-10T03:21:49;6.03;;;4.33;;
9076;SDS011;4574;51.072;17.174;2023-05-10T03:24:20;6.63;;;4.50;;
9076;SDS011;4574;51.072;17.174;2023-05-10T03:26:51;7.83;;;4.67;;
9076;SDS011;4574;51.072;17.174;2023-05-10T03:29:23;6.63;;;4.50;;
9076;SDS011;4574;51.072;17.174;2023-05-10T03:31:54;7.87;;;4.87;;
9076;SDS011;4574;51.072;17.174;2023-05-10T03:34:25;6.00;;;4.53;;
9076;SDS011;4574;51.072;17.174;2023-05-10T03:36:54;11.83;;;4.47;;
9076;SDS011;4574;51.072;17.174;2023-05-10T03:39:22;7.43;;;4.43;;
9076;SDS011;4574;51.072;17.174;2023-05-10T03:41:51;6.53;;;4.10;;
9076;SDS011;4574;51.072;17.174;2023-05-10T03:44:20;4.93;;;4.20;;
9076;SDS011;4574;51.072;17.174;2023-05-10T03:46:48;7.20;;;4.67;;
9076;SDS011;4574;51.072;17.174;2023-05-10T03:49:17;6.00;;;4.40;;
9076;SDS011;4574;51.072;17.174;2023-05-10T03:51:47;6.00;;;4.67;;
9076;SDS011;4574;51.072;17.174;2023-05-10T03:54:16;10.33;;;4.50;;
9076;SDS011;4574;51.072;17.174;2023-05-10T03:56:44;7.20;;;5.00;;
9076;SDS011;4574;51.072;17.174;2023-05-10T03:59:14;5.90;;;4.10;;
9076;SDS011;4574;51.072;17.174;2023-05-10T04:01:43;8.20;;;4.57;;
9076;SDS011;4574;51.072;17.174;2023-05-10T04:04:11;6.77;;;4.37;;
9076;SDS011;4574;51.072;17.174;2023-05-10T04:06:40;5.73;;;4.13;;
9076;SDS011;4574;51.072;17.174;2023-05-10T04:09:10;8.97;;;4.67;;
9076;SDS011;4574;51.072;17.174;2023-05-10T04:11:39;6.23;;;4.40;;
9076;SDS011;4574;51.072;17.174;2023-05-10T04:14:07;8.57;;;4.67;;
9076;SDS011;4574;51.072;17.174;2023-05-10T04:16:36;8.33;;;4.73;;
9076;SDS011;4574;51.072;17.174;2023-05-10T04:19:05;6.00;;;4.50;;
9076;SDS011;4574;51.072;17.174;2023-05-10T04:21:34;7.40;;;4.80;;
9076;SDS011;4574;51.072;17.174;2023-05-10T04:24:02;7.83;;;4.33;;
9076;SDS011;4574;51.072;17.174;2023-05-10T04:26:33;5.67;;;4.10;;
9076;SDS011;4574;51.072;17.174;2023-05-10T04:29:02;9.47;;;4.60;;
9076;SDS011;4574;51.072;17.174;2023-05-10T04:31:30;6.40;;;4.40;;
9076;SDS011;4574;51.072;17.174;2023-05-10T04:33:59;6.77;;;4.57;;
9076;SDS011;4574;51.072;17.174;2023-05-10T04:36:27;6.53;;;4.40;;
9076;SDS011;4574;51.072;17.174;2023-05-10T04:38:56;7.83;;;4.97;;
9076;SDS011;4574;51.072;17.174;2023-05-10T04:41:24;6.83;;;4.50;;
9076;SDS011;4574;51.072;17.174;2023-05-10T04:43:54;7.60;;;4.67;;
9076;SDS011;4574;51.072;17.174;2023-05-10T04:46:23;6.70;;;4.70;;
9076;SDS011;4574;51.072;17.174;2023-05-10T04:48:52;7.13;;;4.30;;
9076;SDS011;4574;51.072;17.174;2023-05-10T04:51:21;6.43;;;4.43;;
9076;SDS011;4574;51.072;17.174;2023-05-10T04:53:49;8.77;;;4.83;;
9076;SDS011;4574;51.072;17.174;2023-05-10T04:56:32;6.90;;;5.10;;
9076;SDS011;4574;51.072;17.174;2023-05-10T04:59:02;7.87;;;4.97;;
9076;SDS011;4574;51.072;17.174;2023-05-10T05:01:30;5.80;;;4.57;;
9076;SDS011;4574;51.072;17.174;2023-05-10T05:03:59;8.70;;;4.70;;
9076;SDS011;4574;51.072;17.174;2023-05-10T05:06:28;8.83;;;4.20;;
9076;SDS011;4574;51.072;17.174;2023-05-10T05:08:56;6.10;;;4.27;;
9076;SDS011;4574;51.072;17.174;2023-05-10T05:11:25;6.07;;;4.27;;
9076;SDS011;4574;51.072;17.174;2023-05-10T05:13:53;7.33;;;4.70;;
9076;SDS011;4574;51.072;17.174;2023-05-10T05:16:23;9.20;;;4.60;;
9076;SDS011;4574;51.072;17.174;2023-05-10T05:18:52;7.33;;;4.50;;
9076;SDS011;4574;51.072;17.174;2023-05-10T05:21:20;6.97;;;4.53;;
9076;SDS011;4574;51.072;17.174;2023-05-10T05:23:50;10.30;;;4.33;;
9076;SDS011;4574;51.072;17.174;2023-05-10T05:26:19;5.77;;;4.23;;
9076;SDS011;4574;51.072;17.174;2023-05-10T05:28:47;10.63;;;4.77;;
9076;SDS011;4574;51.072;17.174;2023-05-10T05:31:19;6.37;;;4.00;;
9076;SDS011;4574;51.072;17.174;2023-05-10T05:33:49;7.23;;;4.30;;
9076;SDS011;4574;51.072;17.174;2023-05-10T05:36:18;9.17;;;4.50;;
9076;SDS011;4574;51.072;17.174;2023-05-10T05:38:47;5.17;;;3.97;;
9076;SDS011;4574;51.072;17.174;2023-05-10T05:41:15;8.33;;;4.30;;
9076;SDS011;4574;51.072;17.174;2023-05-10T05:43:44;7.63;;;4.20;;
9076;SDS011;4574;51.072;17.174;2023-05-10T05:46:13;7.80;;;4.63;;
9076;SDS011;4574;51.072;17.174;2023-05-10T05:48:41;6.17;;;4.20;;
9076;SDS011;4574;51.072;17.174;2023-05-10T05:51:11;5.70;;;4.50;;
9076;SDS011;4574;51.072;17.174;2023-05-10T05:53:40;7.70;;;4.23;;
9076;SDS011;4574;51.072;17.174;2023-05-10T05:56:09;6.63;;;4.37;;
9076;SDS011;4574;51.072;17.174;2023-05-10T05:58:37;6.47;;;4.40;;
9076;SDS011;4574;51.072;17.174;2023-05-10T06:01:06;4.93;;;4.07;;
9076;SDS011;4574;51.072;17.174;2023-05-10T06:03:38;4.93;;;4.07;;
9076;SDS011;4574;51.072;17.174;2023-05-10T06:06:07;7.37;;;4.07;;
9076;SDS011;4574;51.072;17.174;2023-05-10T06:08:40;6.70;;;4.50;;
9076;SDS011;4574;51.072;17.174;2023-05-10T06:11:15;4.37;;;3.73;;
9076;SDS011;4574;51.072;17.174;2023-05-10T06:13:45;8.13;;;4.23;;
9076;SDS011;4574;51.072;17.174;2023-05-10T06:16:13;6.70;;;4.03;;
9076;SDS011;4574;51.072;17.174;2023-05-10T06:18:42;10.10;;;4.10;;
9076;SDS011;4574;51.072;17.174;2023-05-10T06:21:11;7.17;;;3.87;;
9076;SDS011;4574;51.072;17.174;2023-05-10T06:23:41;5.97;;;3.93;;
9076;SDS011;4574;51.072;17.174;2023-05-10T06:26:10;5.77;;;4.37;;
9076;SDS011;4574;51.072;17.174;2023-05-10T06:28:40;6.80;;;3.70;;
9076;SDS011;4574;51.072;17.174;2023-05-10T06:31:08;4.97;;;3.80;;
9076;SDS011;4574;51.072;17.174;2023-05-10T06:33:38;5.97;;;3.67;;
9076;SDS011;4574;51.072;17.174;2023-05-10T06:36:07;6.67;;;4.13;;
9076;SDS011;4574;51.072;17.174;2023-05-10T06:38:35;6.40;;;4.00;;
9076;SDS011;4574;51.072;17.174;2023-05-10T06:41:05;4.73;;;3.50;;
9076;SDS011;4574;51.072;17.174;2023-05-10T06:43:34;5.70;;;3.67;;
9076;SDS011;4574;51.072;17.174;2023-05-10T06:46:06;7.60;;;3.70;;
9076;SDS011;4574;51.072;17.174;2023-05-10T06:48:35;8.30;;;3.40;;
9076;SDS011;4574;51.072;17.174;2023-05-10T06:51:03;4.17;;;3.50;;
9076;SDS011;4574;51.072;17.174;2023-05-10T06:53:32;7.97;;;4.00;;
9076;SDS011;4574;51.072;17.174;2023-05-10T06:56:01;4.40;;;3.70;;
9076;SDS011;4574;51.072;17.174;2023-05-10T06:58:31;6.13;;;3.23;;
9076;SDS011;4574;51.072;17.174;2023-05-10T07:01:03;4.23;;;3.20;;
9076;SDS011;4574;51.072;17.174;2023-05-10T07:03:33;6.97;;;3.97;;
9076;SDS011;4574;51.072;17.174;2023-05-10T07:06:02;4.83;;;3.53;;
9076;SDS011;4574;51.072;17.174;2023-05-10T07:08:31;3.90;;;3.33;;
9076;SDS011;4574;51.072;17.174;2023-05-10T07:11:00;4.70;;;3.43;;
9076;SDS011;4574;51.072;17.174;2023-05-10T07:13:31;4.40;;;3.30;;
9076;SDS011;4574;51.072;17.174;2023-05-10T07:16:00;3.37;;;2.90;;
9076;SDS011;4574;51.072;17.174;2023-05-10T07:18:29;4.77;;;3.30;;
9076;SDS011;4574;51.072;17.174;2023-05-10T07:20:58;4.63;;;3.30;;
9076;SDS011;4574;51.072;17.174;2023-05-10T07:23:27;5.80;;;3.17;;
9076;SDS011;4574;51.072;17.174;2023-05-10T07:25:56;12.10;;;3.30;;
9076;SDS011;4574;51.072;17.174;2023-05-10T07:28:25;5.33;;;3.53;;
9076;SDS011;4574;51.072;17.174;2023-05-10T07:30:59;5.63;;;3.53;;
9076;SDS011;4574;51.072;17.174;2023-05-10T07:33:28;12.07;;;3.03;;
9076;SDS011;4574;51.072;17.174;2023-05-10T07:35:56;3.47;;;2.77;;
9076;SDS011;4574;51.072;17.174;2023-05-10T07:38:25;4.67;;;3.23;;
9076;SDS011;4574;51.072;17.174;2023-05-10T07:40:54;5.37;;;2.90;;
9076;SDS011;4574;51.072;17.174;2023-05-10T07:43:23;9.67;;;3.33;;
9076;SDS011;4574;51.072;17.174;2023-05-10T07:45:53;7.77;;;3.10;;
9076;SDS011;4574;51.072;17.174;2023-05-10T07:48:25;5.87;;;3.10;;
9076;SDS011;4574;51.072;17.174;2023-05-10T07:50:54;4.20;;;3.00;;
9076;SDS011;4574;51.072;17.174;2023-05-10T07:53:24;6.03;;;3.27;;
9076;SDS011;4574;51.072;17.174;2023-05-10T07:55:54;9.33;;;2.77;;
9076;SDS011;4574;51.072;17.174;2023-05-10T07:58:26;4.63;;;3.27;;
9076;SDS011;4574;51.072;17.174;2023-05-10T08:00:55;4.50;;;3.30;;
9076;SDS011;4574;51.072;17.174;2023-05-10T08:03:25;3.50;;;3.17;;
9076;SDS011;4574;51.072;17.174;2023-05-10T08:05:54;4.03;;;2.93;;
9076;SDS011;4574;51.072;17.174;2023-05-10T08:08:23;7.70;;;3.20;;
9076;SDS011;4574;51.072;17.174;2023-05-10T08:10:53;3.73;;;3.10;;
9076;SDS011;4574;51.072;17.174;2023-05-10T08:13:21;3.60;;;2.93;;
9076;SDS011;4574;51.072;17.174;2023-05-10T08:15:50;7.40;;;2.93;;
9076;SDS011;4574;51.072;17.174;2023-05-10T08:18:20;5.77;;;2.93;;
9076;SDS011;4574;51.072;17.174;2023-05-10T08:20:50;4.57;;;2.70;;
9076;SDS011;4574;51.072;17.174;2023-05-10T08:23:19;3.43;;;2.77;;
9076;SDS011;4574;51.072;17.174;2023-05-10T08:25:48;3.77;;;2.90;;
9076;SDS011;4574;51.072;17.174;2023-05-10T08:28:17;14.10;;;5.33;;
9076;SDS011;4574;51.072;17.174;2023-05-10T08:30:46;4.17;;;2.90;;
9076;SDS011;4574;51.072;17.174;2023-05-10T08:33:15;3.20;;;2.90;;
9076;SDS011;4574;51.072;17.174;2023-05-10T08:35:45;6.43;;;3.00;;
9076;SDS011;4574;51.072;17.174;2023-05-10T08:38:16;3.97;;;2.73;;
9076;SDS011;4574;51.072;17.174;2023-05-10T08:40:46;5.67;;;2.53;;
9076;SDS011;4574;51.072;17.174;2023-05-10T08:43:17;4.80;;;2.50;;
9076;SDS011;4574;51.072;17.174;2023-05-10T08:45:47;7.03;;;2.70;;
9076;SDS011;4574;51.072;17.174;2023-05-10T08:48:19;3.37;;;2.27;;
9076;SDS011;4574;51.072;17.174;2023-05-10T08:50:51;3.37;;;2.40;;
9076;SDS011;4574;51.072;17.174;2023-05-10T08:53:24;6.50;;;2.40;;
9076;SDS011;4574;51.072;17.174;2023-05-10T08:55:54;3.43;;;2.67;;
9076;SDS011;4574;51.072;17.174;2023-05-10T08:58:29;4.33;;;2.90;;
9076;SDS011;4574;51.072;17.174;2023-05-10T09:00:57;3.80;;;2.27;;
9076;SDS011;4574;51.072;17.174;2023-05-10T09:03:27;2.97;;;1.97;;
9076;SDS011;4574;51.072;17.174;2023-05-10T09:05:56;4.10;;;2.50;;
9076;SDS011;4574;51.072;17.174;2023-05-10T09:08:26;4.10;;;2.47;;
9076;SDS011;4574;51.072;17.174;2023-05-10T09:10:57;5.03;;;2.00;;
9076;SDS011;4574;51.072;17.174;2023-05-10T09:13:26;2.10;;;1.90;;
9076;SDS011;4574;51.072;17.174;2023-05-10T09:15:56;2.40;;;2.10;;
9076;SDS011;4574;51.072;17.174;2023-05-10T09:18:39;3.83;;;2.53;;
9076;SDS011;4574;51.072;17.174;2023-05-10T09:21:07;2.30;;;2.10;;
9076;SDS011;4574;51.072;17.174;2023-05-10T09:23:39;3.83;;;2.47;;
9076;SDS011;4574;51.072;17.174;2023-05-10T09:26:13;6.90;;;2.00;;
9076;SDS011;4574;51.072;17.174;2023-05-10T09:28:52;4.40;;;2.40;;
9076;SDS011;4574;51.072;17.174;2023-05-10T09:31:24;2.90;;;2.60;;
9076;SDS011;4574;51.072;17.174;2023-05-10T09:34:15;4.17;;;2.43;;
9076;SDS011;4574;51.072;17.174;2023-05-10T09:36:51;6.37;;;2.60;;
9076;SDS011;4574;51.072;17.174;2023-05-10T09:39:22;9.07;;;2.70;;
9076;SDS011;4574;51.072;17.174;2023-05-10T09:41:58;5.23;;;2.57;;
9076;SDS011;4574;51.072;17.174;2023-05-10T09:44:30;3.70;;;2.30;;
9076;SDS011;4574;51.072;17.174;2023-05-10T09:46:59;4.43;;;2.50;;
9076;SDS011;4574;51.072;17.174;2023-05-10T09:49:29;4.97;;;2.40;;
9076;SDS011;4574;51.072;17.174;2023-05-10T09:52:02;3.23;;;2.37;;
9076;SDS011;4574;51.072;17.174;2023-05-10T09:54:33;3.80;;;2.40;;
9076;SDS011;4574;51.072;17.174;2023-05-10T09:57:02;5.03;;;2.50;;
9076;SDS011;4574;51.072;17.174;2023-05-10T09:59:32;5.70;;;2.10;;
9076;SDS011;4574;51.072;17.174;2023-05-10T10:02:01;5.70;;;2.80;;
9076;SDS011;4574;51.072;17.174;2023-05-10T10:04:31;3.00;;;2.20;;
9076;SDS011;4574;51.072;17.174;2023-05-10T10:07:00;3.80;;;2.57;;
9076;SDS011;4574;51.072;17.174;2023-05-10T10:09:30;8.00;;;2.57;;
9076;SDS011;4574;51.072;17.174;2023-05-10T10:12:02;5.17;;;2.70;;
9076;SDS011;4574;51.072;17.174;2023-05-10T10:14:31;4.67;;;2.87;;
9076;SDS011;4574;51.072;17.174;2023-05-10T10:17:00;2.50;;;2.30;;
9076;SDS011;4574;51.072;17.174;2023-05-10T10:19:34;2.93;;;2.50;;
9076;SDS011;4574;51.072;17.174;2023-05-10T10:22:04;3.80;;;2.60;;
9076;SDS011;4574;51.072;17.174;2023-05-10T10:24:34;7.17;;;2.47;;
9076;SDS011;4574;51.072;17.174;2023-05-10T10:27:06;2.07;;;1.87;;
9076;SDS011;4574;51.072;17.174;2023-05-10T10:29:46;3.60;;;2.23;;
9076;SDS011;4574;51.072;17.174;2023-05-10T10:32:22;6.17;;;2.10;;
9076;SDS011;4574;51.072;17.174;2023-05-10T10:34:55;2.40;;;1.73;;
9076;SDS011;4574;51.072;17.174;2023-05-10T10:40:26;2.30;;;2.10;;
9076;SDS011;4574;51.072;17.174;2023-05-10T10:43:21;4.80;;;2.57;;
9076;SDS011;4574;51.072;17.174;2023-05-10T10:48:39;7.87;;;3.03;;
9076;SDS011;4574;51.072;17.174;2023-05-10T10:51:08;3.67;;;2.20;;
9076;SDS011;4574;51.072;17.174;2023-05-10T10:53:38;7.70;;;2.20;;
9076;SDS011;4574;51.072;17.174;2023-05-10T10:56:10;5.00;;;2.63;;
9076;SDS011;4574;51.072;17.174;2023-05-10T10:58:42;4.00;;;2.67;;
9076;SDS011;4574;51.072;17.174;2023-05-10T11:01:20;4.33;;;2.70;;
9076;SDS011;4574;51.072;17.174;2023-05-10T11:06:48;2.23;;;2.03;;
9076;SDS011;4574;51.072;17.174;2023-05-10T11:09:17;4.70;;;2.03;;
9076;SDS011;4574;51.072;17.174;2023-05-10T11:11:52;2.43;;;2.17;;
9076;SDS011;4574;51.072;17.174;2023-05-10T11:14:24;5.97;;;2.37;;
9076;SDS011;4574;51.072;17.174;2023-05-10T11:16:53;2.37;;;1.83;;
9076;SDS011;4574;51.072;17.174;2023-05-10T11:19:22;2.10;;;1.80;;
9076;SDS011;4574;51.072;17.174;2023-05-10T11:24:40;4.03;;;1.80;;
9076;SDS011;4574;51.072;17.174;2023-05-10T11:27:26;4.73;;;2.30;;
9076;SDS011;4574;51.072;17.174;2023-05-10T11:29:55;3.43;;;1.80;;
9076;SDS011;4574;51.072;17.174;2023-05-10T11:32:23;4.73;;;2.33;;
9076;SDS011;4574;51.072;17.174;2023-05-10T11:34:52;4.30;;;2.20;;
9076;SDS011;4574;51.072;17.174;2023-05-10T11:37:21;4.40;;;1.83;;
9076;SDS011;4574;51.072;17.174;2023-05-10T11:39:50;4.30;;;2.00;;
9076;SDS011;4574;51.072;17.174;2023-05-10T11:42:18;1.70;;;1.60;;
9076;SDS011;4574;51.072;17.174;2023-05-10T11:44:48;2.17;;;1.97;;
9076;SDS011;4574;51.072;17.174;2023-05-10T11:47:17;3.43;;;1.90;;
9076;SDS011;4574;51.072;17.174;2023-05-10T11:49:46;2.60;;;2.10;;
9076;SDS011;4574;51.072;17.174;2023-05-10T11:52:17;2.90;;;1.63;;
9076;SDS011;4574;51.072;17.174;2023-05-10T11:54:50;8.23;;;2.20;;
9076;SDS011;4574;51.072;17.174;2023-05-10T11:57:20;3.07;;;1.80;;
9076;SDS011;4574;51.072;17.174;2023-05-10T11:59:55;2.13;;;1.93;;
9076;SDS011;4574;51.072;17.174;2023-05-10T12:02:25;2.70;;;1.70;;
9076;SDS011;4574;51.072;17.174;2023-05-10T12:04:54;2.90;;;1.80;;
9076;SDS011;4574;51.072;17.174;2023-05-10T12:07:23;1.67;;;1.57;;
9076;SDS011;4574;51.072;17.174;2023-05-10T12:10:05;3.63;;;1.80;;
9076;SDS011;4574;51.072;17.174;2023-05-10T12:12:38;6.60;;;1.90;;
9076;SDS011;4574;51.072;17.174;2023-05-10T12:15:16;6.30;;;1.93;;
9076;SDS011;4574;51.072;17.174;2023-05-10T12:17:46;1.87;;;1.77;;
9076;SDS011;4574;51.072;17.174;2023-05-10T12:20:16;5.47;;;1.60;;
9076;SDS011;4574;51.072;17.174;2023-05-10T12:22:47;5.37;;;1.70;;
9076;SDS011;4574;51.072;17.174;2023-05-10T12:25:17;3.00;;;1.60;;
9076;SDS011;4574;51.072;17.174;2023-05-10T12:27:48;3.30;;;1.63;;
9076;SDS011;4574;51.072;17.174;2023-05-10T12:30:20;3.13;;;1.73;;
9076;SDS011;4574;51.072;17.174;2023-05-10T12:32:50;2.17;;;1.80;;
9076;SDS011;4574;51.072;17.174;2023-05-10T12:35:19;1.53;;;1.40;;
9076;SDS011;4574;51.072;17.174;2023-05-10T12:37:50;1.80;;;1.27;;
9076;SDS011;4574;51.072;17.174;2023-05-10T12:40:20;3.13;;;1.50;;
9076;SDS011;4574;51.072;17.174;2023-05-10T12:42:49;3.27;;;1.57;;
9076;SDS011;4574;51.072;17.174;2023-05-10T12:45:18;2.23;;;1.63;;
9076;SDS011;4574;51.072;17.174;2023-05-10T12:47:48;4.80;;;1.20;;
9076;SDS011;4574;51.072;17.174;2023-05-10T12:50:17;2.60;;;1.50;;
9076;SDS011;4574;51.072;17.174;2023-05-10T12:52:46;2.90;;;1.50;;
9076;SDS011;4574;51.072;17.174;2023-05-10T12:55:14;3.53;;;1.40;;
9076;SDS011;4574;51.072;17.174;2023-05-10T12:57:43;2.47;;;1.70;;
9076;SDS011;4574;51.072;17.174;2023-05-10T13:00:12;1.50;;;1.40;;
9076;SDS011;4574;51.072;17.174;2023-05-10T13:02:41;2.30;;;1.27;;
9076;SDS011;4574;51.072;17.174;2023-05-10T13:05:11;4.20;;;1.47;;
9076;SDS011;4574;51.072;17.174;2023-05-10T13:07:40;1.47;;;1.20;;
9076;SDS011;4574;51.072;17.174;2023-05-10T13:10:10;3.30;;;1.40;;
9076;SDS011;4574;51.072;17.174;2023-05-10T13:12:39;1.50;;;1.40;;
9076;SDS011;4574;51.072;17.174;2023-05-10T13:15:08;1.87;;;1.47;;
9076;SDS011;4574;51.072;17.174;2023-05-10T13:17:37;3.80;;;1.40;;
9076;SDS011;4574;51.072;17.174;2023-05-10T13:20:07;2.67;;;1.57;;
9076;SDS011;4574;51.072;17.174;2023-05-10T13:22:38;2.60;;;1.37;;
9076;SDS011;4574;51.072;17.174;2023-05-10T13:25:07;1.30;;;1.20;;
9076;SDS011;4574;51.072;17.174;2023-05-10T13:27:37;2.40;;;1.10;;
9076;SDS011;4574;51.072;17.174;2023-05-10T13:30:06;1.80;;;1.27;;
9076;SDS011;4574;51.072;17.174;2023-05-10T13:32:35;2.83;;;1.30;;
9076;SDS011;4574;51.072;17.174;2023-05-10T13:35:04;1.87;;;1.47;;
9076;SDS011;4574;51.072;17.174;2023-05-10T13:37:33;2.50;;;1.30;;
9076;SDS011;4574;51.072;17.174;2023-05-10T13:40:06;2.20;;;1.40;;
9076;SDS011;4574;51.072;17.174;2023-05-10T13:42:35;1.33;;;1.23;;
9076;SDS011;4574;51.072;17.174;2023-05-10T13:45:04;1.10;;;1.10;;
9076;SDS011;4574;51.072;17.174;2023-05-10T13:47:33;1.67;;;1.20;;
9076;SDS011;4574;51.072;17.174;2023-05-10T13:50:02;1.27;;;1.10;;
9076;SDS011;4574;51.072;17.174;2023-05-10T13:52:31;1.87;;;1.20;;
9076;SDS011;4574;51.072;17.174;2023-05-10T13:54:59;1.37;;;1.20;;
9076;SDS011;4574;51.072;17.174;2023-05-10T13:57:30;1.40;;;1.27;;
9076;SDS011;4574;51.072;17.174;2023-05-10T14:00:01;2.30;;;1.37;;
9076;SDS011;4574;51.072;17.174;2023-05-10T14:02:30;1.50;;;1.40;;
9076;SDS011;4574;51.072;17.174;2023-05-10T14:04:58;2.43;;;1.10;;
9076;SDS011;4574;51.072;17.174;2023-05-10T14:07:27;1.40;;;1.30;;
9076;SDS011;4574;51.072;17.174;2023-05-10T14:09:55;1.73;;;1.30;;
9076;SDS011;4574;51.072;17.174;2023-05-10T14:12:24;1.80;;;1.17;;
9076;SDS011;4574;51.072;17.174;2023-05-10T14:14:54;1.50;;;1.40;;
9076;SDS011;4574;51.072;17.174;2023-05-10T14:17:23;1.60;;;1.30;;
9076;SDS011;4574;51.072;17.174;2023-05-10T14:19:52;1.63;;;1.27;;
9076;SDS011;4574;51.072;17.174;2023-05-10T14:22:21;3.77;;;1.30;;
9076;SDS011;4574;51.072;17.174;2023-05-10T14:24:50;3.27;;;1.50;;
9076;SDS011;4574;51.072;17.174;2023-05-10T14:27:18;2.43;;;1.43;;
9076;SDS011;4574;51.072;17.174;2023-05-10T14:29:47;1.53;;;1.20;;
9076;SDS011;4574;51.072;17.174;2023-05-10T14:32:17;1.40;;;1.30;;
9076;SDS011;4574;51.072;17.174;2023-05-10T14:34:46;3.40;;;1.43;;
9076;SDS011;4574;51.072;17.174;2023-05-10T14:37:14;5.67;;;1.20;;
9076;SDS011;4574;51.072;17.174;2023-05-10T14:39:44;3.30;;;1.17;;
9076;SDS011;4574;51.072;17.174;2023-05-10T14:42:12;1.23;;;1.17;;
9076;SDS011;4574;51.072;17.174;2023-05-10T14:44:41;1.17;;;1.17;;
9076;SDS011;4574;51.072;17.174;2023-05-10T14:47:09;1.20;;;1.10;;
9076;SDS011;4574;51.072;17.174;2023-05-10T14:49:39;1.27;;;1.10;;
9076;SDS011;4574;51.072;17.174;2023-05-10T14:52:08;4.07;;;2.80;;
9076;SDS011;4574;51.072;17.174;2023-05-10T14:54:38;5.53;;;2.80;;
9076;SDS011;4574;51.072;17.174;2023-05-10T14:57:07;2.70;;;1.47;;
9076;SDS011;4574;51.072;17.174;2023-05-10T14:59:35;4.60;;;2.03;;
9076;SDS011;4574;51.072;17.174;2023-05-10T15:02:05;1.90;;;1.50;;
9076;SDS011;4574;51.072;17.174;2023-05-10T15:04:35;2.00;;;1.30;;
9076;SDS011;4574;51.072;17.174;2023-05-10T15:07:06;2.90;;;1.13;;
9076;SDS011;4574;51.072;17.174;2023-05-10T15:09:34;2.30;;;1.13;;
9076;SDS011;4574;51.072;17.174;2023-05-10T15:12:03;1.20;;;1.10;;
9076;SDS011;4574;51.072;17.174;2023-05-10T15:14:31;2.13;;;1.20;;
9076;SDS011;4574;51.072;17.174;2023-05-10T15:17:04;1.70;;;1.60;;
9076;SDS011;4574;51.072;17.174;2023-05-10T15:19:34;1.93;;;1.60;;
9076;SDS011;4574;51.072;17.174;2023-05-10T15:22:03;1.70;;;1.60;;
9076;SDS011;4574;51.072;17.174;2023-05-10T15:24:33;1.93;;;1.80;;
9076;SDS011;4574;51.072;17.174;2023-05-10T15:27:02;1.67;;;1.50;;
9076;SDS011;4574;51.072;17.174;2023-05-10T15:29:31;1.60;;;1.50;;
9076;SDS011;4574;51.072;17.174;2023-05-10T15:32:00;2.00;;;1.63;;
9076;SDS011;4574;51.072;17.174;2023-05-10T15:34:29;2.53;;;1.50;;
9076;SDS011;4574;51.072;17.174;2023-05-10T15:37:01;2.80;;;1.30;;
9076;SDS011;4574;51.072;17.174;2023-05-10T15:39:29;1.60;;;1.50;;